Date,TemperatureHighF,TemperatureAvgF,TemperatureLowF,DewpointHighF,DewpointAvgF,DewpointLowF,HumidityHigh,HumidityAvg,HumidityLow,PressureMaxIn,PressureMinIn,WindSpeedMaxMPH,WindSpeedAvgMPH,GustSpeedMaxMPH,PrecipitationSumIn
2013-7-1,72.0,65.3,61.2,58.2,55.9,51.8,88,72,54,29.97,29.80,16,4,16,0.01
2013-7-2,74.7,66.7,47.4,52.3,48.3,45.2,92,54,38,30.07,29.83,6,0,7,0.01
2013-7-3,81.4,74.7,59.2,48.6,44.8,41.4,66,36,27,29.87,29.66,12,1,12,0.00
2013-7-4,85.7,79.1,55.3,48.8,44.5,41.2,62,31,22,29.76,29.57,11,1,13,0.04
2013-7-5,91.0,80.9,56.9,50.2,46.5,43.5,71,31,21,29.71,29.59,26,1,26,0.00
2013-7-6,94.0,82.1,62.4,52.6,48.6,44.6,65,34,19,29.66,29.47,12,1,16,0.00
2013-7-7,91.8,83.9,55.9,53.0,47.3,42.0,74,29,18,29.70,29.60,17,1,17,0.00
2013-7-8,89.0,79.8,55.0,59.9,53.5,44.9,82,42,23,29.81,29.68,16,2,18,0.00
2013-7-9,88.0,74.6,61.0,59.6,56.5,52.4,81,56,31,29.90,29.71,17,1,17,0.00
2013-7-10,90.1,82.1,61.8,61.2,55.4,49.7,83,42,27,29.84,29.66,14,1,14,0.00
2013-7-11,89.9,77.7,62.1,61.6,54.7,48.2,80,48,27,29.77,29.65,19,3,22,0.18
2013-7-12,92.5,81.9,55.3,62.7,53.3,44.9,93,42,22,29.80,29.62,14,0,14,0.00
2013-7-13,89.5,79.8,57.2,57.0,48.0,39.9,82,37,18,29.77,29.61,17,0,18,0.00
2013-7-14,92.3,85.9,56.5,54.0,42.5,34.9,74,24,15,29.76,29.50,22,0,25,0.00
2013-7-15,64.8,62.1,58.3,59.3,56.5,53.0,88,82,73,29.90,29.64,12,2,14,0.00
2013-7-16,64.0,61.4,58.3,56.5,55.1,52.5,87,80,70,29.97,29.90,12,1,12,0.04
2013-7-17,67.1,63.6,61.2,63.2,61.3,59.8,95,92,84,30.02,29.92,13,1,17,1.47
2013-7-18,71.8,67.2,62.1,63.1,60.3,58.3,94,79,67,29.94,29.84,12,2,14,0.07
2013-7-19,66.8,64.5,63.1,62.8,61.2,60.0,91,89,86,29.86,29.74,0,0,0,0.00
2013-7-20,76.8,69.0,62.7,62.7,60.4,57.0,93,75,53,29.79,29.68,14,2,14,0.13
2013-7-21,80.1,72.6,60.5,61.5,59.1,55.8,93,64,46,29.78,29.62,14,0,15,0.13
2013-7-22,84.9,72.4,59.9,65.8,61.8,54.6,92,72,36,29.74,29.64,10,0,18,0.37
2013-7-23,84.0,75.9,63.4,64.4,62.1,58.7,91,64,44,29.77,29.65,12,2,14,0.00
2013-7-24,86.1,76.0,60.9,64.7,60.7,53.8,92,61,36,29.76,29.68,10,0,13,0.00
2013-7-25,85.7,77.8,56.9,63.2,56.7,47.7,92,51,28,29.87,29.75,8,0,8,0.00
2013-7-26,84.7,73.5,58.4,64.1,60.5,55.2,89,67,41,29.92,29.78,21,2,28,0.07
2013-7-27,79.4,72.0,66.0,64.5,61.7,57.3,87,71,51,29.92,29.73,7,0,12,0.05
2013-7-28,83.0,72.9,59.3,64.5,61.3,57.2,94,69,45,29.75,29.65,18,1,18,0.69
2013-7-29,83.8,74.6,63.9,65.2,61.9,58.3,91,67,48,29.81,29.70,18,1,22,0.51
2013-7-30,87.8,78.9,65.3,65.1,61.0,55.9,85,56,37,29.89,29.79,11,0,12,0.00
2013-7-31,86.7,75.1,59.0,61.5,58.2,53.2,91,58,35,29.93,29.75,0,0,0,0.00